Terminal Aerodrome Forecast
Issued by NWS

Current Version | Previous Version | Text Only | Print | Product List | Glossary Off
Versions: 1 2 3 4 5 6 7 8 9 10 11 12 13 14 15 16

000
FTUS41 KILN 201100
TAFLUK
TAF
KLUK 201121Z 2012/2112 24010KT P6SM OVC035
     FM201400 25012KT P6SM SKC
     FM201600 25012G18KT P6SM SCT035
     FM202000 25013G20KT P6SM BKN040
     FM202200 25012KT P6SM OVC035=

USA.gov is the U.S. government's official web portal to all federal, state and local government web resources and services.